sensor_id;sensor_type;location;lat;lon;timestamp;temperature;humidity
40808;DHT22;26523;52.504;13.498;2022-10-20T00:00:25;5.40;99.90
40808;DHT22;26523;52.504;13.498;2022-10-20T00:02:50;5.40;99.90
40808;DHT22;26523;52.504;13.498;2022-10-20T00:05:16;5.40;99.90
40808;DHT22;26523;52.504;13.498;2022-10-20T00:07:42;5.30;99.90
40808;DHT22;26523;52.504;13.498;2022-10-20T00:10:07;5.40;99.90
40808;DHT22;26523;52.504;13.498;2022-10-20T00:12:33;5.30;99.90
40808;DHT22;26523;52.504;13.498;2022-10-20T00:14:59;5.30;99.90
40808;DHT22;26523;52.504;13.498;2022-10-20T00:17:24;5.20;99.90
40808;DHT22;26523;52.504;13.498;2022-10-20T00:19:50;5.00;99.90
40808;DHT22;26523;52.504;13.498;2022-10-20T00:22:16;5.00;99.90
40808;DHT22;26523;52.504;13.498;2022-10-20T00:24:41;5.00;99.90
40808;DHT22;26523;52.504;13.498;2022-10-20T00:27:07;4.90;99.90
40808;DHT22;26523;52.504;13.498;2022-10-20T00:29:33;5.00;99.90
40808;DHT22;26523;52.504;13.498;2022-10-20T00:31:59;4.90;99.90
40808;DHT22;26523;52.504;13.498;2022-10-20T00:34:25;4.90;99.90
40808;DHT22;26523;52.504;13.498;2022-10-20T00:36:50;4.90;99.90
40808;DHT22;26523;52.504;13.498;2022-10-20T00:39:16;4.90;99.90
40808;DHT22;26523;52.504;13.498;2022-10-20T00:41:41;4.90;99.90
40808;DHT22;26523;52.504;13.498;2022-10-20T00:47:13;4.80;99.90
40808;DHT22;26523;52.504;13.498;2022-10-20T00:49:41;4.70;99.90
40808;DHT22;26523;52.504;13.498;2022-10-20T00:52:07;4.70;99.90
40808;DHT22;26523;52.504;13.498;2022-10-20T00:54:33;4.70;99.90
40808;DHT22;26523;52.504;13.498;2022-10-20T00:56:59;4.70;99.90
40808;DHT22;26523;52.504;13.498;2022-10-20T00:59:29;4.60;99.90
40808;DHT22;26523;52.504;13.498;2022-10-20T01:01:57;4.70;99.90
40808;DHT22;26523;52.504;13.498;2022-10-20T01:04:25;4.60;99.90
40808;DHT22;26523;52.504;13.498;2022-10-20T01:06:51;4.60;99.90
40808;DHT22;26523;52.504;13.498;2022-10-20T01:09:17;4.60;99.90
40808;DHT22;26523;52.504;13.498;2022-10-20T01:15:00;4.60;99.90
40808;DHT22;26523;52.504;13.498;2022-10-20T01:22:45;4.50;99.90
40808;DHT22;26523;52.504;13.498;2022-10-20T01:28:07;4.60;99.90
40808;DHT22;26523;52.504;13.498;2022-10-20T01:30:41;4.60;99.90
40808;DHT22;26523;52.504;13.498;2022-10-20T01:33:27;4.60;99.90
40808;DHT22;26523;52.504;13.498;2022-10-20T01:36:13;4.60;99.90
40808;DHT22;26523;52.504;13.498;2022-10-20T01:42:08;4.60;99.90
40808;DHT22;26523;52.504;13.498;2022-10-20T01:44:36;4.60;99.90
40808;DHT22;26523;52.504;13.498;2022-10-20T01:47:04;4.60;99.90
40808;DHT22;26523;52.504;13.498;2022-10-20T01:49:30;4.60;99.90
40808;DHT22;26523;52.504;13.498;2022-10-20T01:51:56;4.60;99.90
40808;DHT22;26523;52.504;13.498;2022-10-20T01:54:24;4.60;99.90
40808;DHT22;26523;52.504;13.498;2022-10-20T01:57:23;4.60;99.90
40808;DHT22;26523;52.504;13.498;2022-10-20T02:00:05;4.60;99.90
40808;DHT22;26523;52.504;13.498;2022-10-20T02:07:48;4.50;99.90
40808;DHT22;26523;52.504;13.498;2022-10-20T02:10:26;4.50;99.90
40808;DHT22;26523;52.504;13.498;2022-10-20T02:12:57;4.50;99.90
40808;DHT22;26523;52.504;13.498;2022-10-20T02:15:24;4.50;99.90
40808;DHT22;26523;52.504;13.498;2022-10-20T02:17:59;4.50;99.90
40808;DHT22;26523;52.504;13.498;2022-10-20T02:20:29;4.50;99.90
40808;DHT22;26523;52.504;13.498;2022-10-20T02:22:57;4.40;99.90
40808;DHT22;26523;52.504;13.498;2022-10-20T02:25:25;4.40;99.90
40808;DHT22;26523;52.504;13.498;2022-10-20T02:27:52;4.30;99.90
40808;DHT22;26523;52.504;13.498;2022-10-20T02:30:19;4.40;99.90
40808;DHT22;26523;52.504;13.498;2022-10-20T02:32:48;4.40;99.90
40808;DHT22;26523;52.504;13.498;2022-10-20T02:35:18;4.30;99.90
40808;DHT22;26523;52.504;13.498;2022-10-20T02:37:45;4.30;99.90
40808;DHT22;26523;52.504;13.498;2022-10-20T02:40:10;4.30;99.90
40808;DHT22;26523;52.504;13.498;2022-10-20T02:42:36;4.30;99.90
40808;DHT22;26523;52.504;13.498;2022-10-20T02:45:05;4.30;99.90
40808;DHT22;26523;52.504;13.498;2022-10-20T02:47:31;4.20;99.90
40808;DHT22;26523;52.504;13.498;2022-10-20T02:49:57;4.20;99.90
40808;DHT22;26523;52.504;13.498;2022-10-20T02:52:22;4.20;99.90
40808;DHT22;26523;52.504;13.498;2022-10-20T02:54:48;4.20;99.90
40808;DHT22;26523;52.504;13.498;2022-10-20T02:57:13;4.20;99.90
40808;DHT22;26523;52.504;13.498;2022-10-20T02:59:39;4.10;99.90
40808;DHT22;26523;52.504;13.498;2022-10-20T03:02:05;4.10;99.90
40808;DHT22;26523;52.504;13.498;2022-10-20T03:04:30;4.10;99.90
40808;DHT22;26523;52.504;13.498;2022-10-20T03:06:56;4.10;99.90
40808;DHT22;26523;52.504;13.498;2022-10-20T03:09:21;4.10;99.90
40808;DHT22;26523;52.504;13.498;2022-10-20T03:11:47;4.20;99.90
40808;DHT22;26523;52.504;13.498;2022-10-20T03:14:13;4.20;99.90
40808;DHT22;26523;52.504;13.498;2022-10-20T03:16:38;4.10;99.90
40808;DHT22;26523;52.504;13.498;2022-10-20T03:19:04;4.10;99.90
40808;DHT22;26523;52.504;13.498;2022-10-20T03:21:29;4.10;99.90
40808;DHT22;26523;52.504;13.498;2022-10-20T03:23:55;4.10;99.90
40808;DHT22;26523;52.504;13.498;2022-10-20T03:26:21;4.00;99.90
40808;DHT22;26523;52.504;13.498;2022-10-20T03:28:46;4.00;99.90
40808;DHT22;26523;52.504;13.498;2022-10-20T03:31:12;4.00;99.90
40808;DHT22;26523;52.504;13.498;2022-10-20T03:33:38;4.00;99.90
40808;DHT22;26523;52.504;13.498;2022-10-20T03:36:04;3.90;99.90
40808;DHT22;26523;52.504;13.498;2022-10-20T03:38:30;3.90;99.90
40808;DHT22;26523;52.504;13.498;2022-10-20T03:40:55;4.00;99.90
40808;DHT22;26523;52.504;13.498;2022-10-20T03:43:21;3.90;99.90
40808;DHT22;26523;52.504;13.498;2022-10-20T03:45:47;3.90;99.90
40808;DHT22;26523;52.504;13.498;2022-10-20T03:48:12;3.90;99.90
40808;DHT22;26523;52.504;13.498;2022-10-20T03:50:39;3.90;99.90
40808;DHT22;26523;52.504;13.498;2022-10-20T03:53:05;3.90;99.90
40808;DHT22;26523;52.504;13.498;2022-10-20T03:55:31;3.90;99.90
40808;DHT22;26523;52.504;13.498;2022-10-20T03:57:56;3.90;99.90
40808;DHT22;26523;52.504;13.498;2022-10-20T04:00:22;3.90;99.90
40808;DHT22;26523;52.504;13.498;2022-10-20T04:02:48;3.80;99.90
40808;DHT22;26523;52.504;13.498;2022-10-20T04:05:16;3.90;99.90
40808;DHT22;26523;52.504;13.498;2022-10-20T04:07:42;3.80;99.90
40808;DHT22;26523;52.504;13.498;2022-10-20T04:10:08;3.80;99.90
40808;DHT22;26523;52.504;13.498;2022-10-20T04:12:34;3.80;99.90
40808;DHT22;26523;52.504;13.498;2022-10-20T04:15:00;3.80;99.90
40808;DHT22;26523;52.504;13.498;2022-10-20T04:17:26;3.80;99.90
40808;DHT22;26523;52.504;13.498;2022-10-20T04:19:51;3.70;99.90
40808;DHT22;26523;52.504;13.498;2022-10-20T04:22:17;3.70;99.90
40808;DHT22;26523;52.504;13.498;2022-10-20T04:24:43;3.60;99.90
40808;DHT22;26523;52.504;13.498;2022-10-20T04:27:09;3.60;99.90
40808;DHT22;26523;52.504;13.498;2022-10-20T04:29:35;3.70;99.90
40808;DHT22;26523;52.504;13.498;2022-10-20T04:32:00;3.60;99.90
40808;DHT22;26523;52.504;13.498;2022-10-20T04:34:26;3.60;99.90
40808;DHT22;26523;52.504;13.498;2022-10-20T04:36:51;3.60;99.90
40808;DHT22;26523;52.504;13.498;2022-10-20T04:39:17;3.60;99.90
40808;DHT22;26523;52.504;13.498;2022-10-20T04:41:43;3.60;99.90
40808;DHT22;26523;52.504;13.498;2022-10-20T04:44:09;3.60;99.90
40808;DHT22;26523;52.504;13.498;2022-10-20T04:46:35;3.70;99.90
40808;DHT22;26523;52.504;13.498;2022-10-20T04:49:00;3.70;99.90
40808;DHT22;26523;52.504;13.498;2022-10-20T04:51:26;3.60;99.90
40808;DHT22;26523;52.504;13.498;2022-10-20T04:53:52;3.60;99.90
40808;DHT22;26523;52.504;13.498;2022-10-20T04:56:19;3.50;99.90
40808;DHT22;26523;52.504;13.498;2022-10-20T04:58:50;3.50;99.90
40808;DHT22;26523;52.504;13.498;2022-10-20T05:01:17;3.60;99.90
40808;DHT22;26523;52.504;13.498;2022-10-20T05:03:42;3.50;99.90
40808;DHT22;26523;52.504;13.498;2022-10-20T05:08:34;3.60;99.90
40808;DHT22;26523;52.504;13.498;2022-10-20T05:11:00;3.50;99.90
40808;DHT22;26523;52.504;13.498;2022-10-20T05:13:25;3.60;99.90
40808;DHT22;26523;52.504;13.498;2022-10-20T05:15:54;3.60;99.90
40808;DHT22;26523;52.504;13.498;2022-10-20T05:18:19;3.60;99.90
40808;DHT22;26523;52.504;13.498;2022-10-20T05:20:45;3.60;99.90
40808;DHT22;26523;52.504;13.498;2022-10-20T05:23:10;3.60;99.90
40808;DHT22;26523;52.504;13.498;2022-10-20T05:25:37;3.60;99.90
40808;DHT22;26523;52.504;13.498;2022-10-20T05:28:03;3.70;99.90
40808;DHT22;26523;52.504;13.498;2022-10-20T05:30:29;3.70;99.90
40808;DHT22;26523;52.504;13.498;2022-10-20T05:32:55;3.70;99.90
40808;DHT22;26523;52.504;13.498;2022-10-20T05:35:20;3.70;99.90
40808;DHT22;26523;52.504;13.498;2022-10-20T05:37:46;3.70;99.90
40808;DHT22;26523;52.504;13.498;2022-10-20T05:40:12;3.60;99.90
40808;DHT22;26523;52.504;13.498;2022-10-20T05:42:38;3.60;99.90
40808;DHT22;26523;52.504;13.498;2022-10-20T05:45:04;3.70;99.90
40808;DHT22;26523;52.504;13.498;2022-10-20T05:47:30;3.60;99.90
40808;DHT22;26523;52.504;13.498;2022-10-20T05:49:56;3.60;99.90
40808;DHT22;26523;52.504;13.498;2022-10-20T05:52:21;3.60;99.90
40808;DHT22;26523;52.504;13.498;2022-10-20T05:54:47;3.60;99.90
40808;DHT22;26523;52.504;13.498;2022-10-20T05:57:12;3.60;99.90
40808;DHT22;26523;52.504;13.498;2022-10-20T05:59:38;3.60;99.90
40808;DHT22;26523;52.504;13.498;2022-10-20T06:02:03;3.70;99.90
40808;DHT22;26523;52.504;13.498;2022-10-20T06:04:29;3.70;99.90
40808;DHT22;26523;52.504;13.498;2022-10-20T06:06:55;3.70;99.90
40808;DHT22;26523;52.504;13.498;2022-10-20T06:09:22;3.70;99.90
40808;DHT22;26523;52.504;13.498;2022-10-20T06:11:49;3.70;99.90
40808;DHT22;26523;52.504;13.498;2022-10-20T06:14:15;3.70;99.90
40808;DHT22;26523;52.504;13.498;2022-10-20T06:16:42;3.70;99.90
40808;DHT22;26523;52.504;13.498;2022-10-20T06:19:08;3.70;99.90
40808;DHT22;26523;52.504;13.498;2022-10-20T06:21:35;3.80;99.90
40808;DHT22;26523;52.504;13.498;2022-10-20T06:24:03;3.70;99.90
40808;DHT22;26523;52.504;13.498;2022-10-20T06:26:30;3.70;99.90
40808;DHT22;26523;52.504;13.498;2022-10-20T06:29:01;3.80;99.90
40808;DHT22;26523;52.504;13.498;2022-10-20T06:31:29;3.80;99.90
40808;DHT22;26523;52.504;13.498;2022-10-20T06:33:56;3.80;99.90
40808;DHT22;26523;52.504;13.498;2022-10-20T06:36:22;3.70;99.90
40808;DHT22;26523;52.504;13.498;2022-10-20T06:38:55;3.80;99.90
40808;DHT22;26523;52.504;13.498;2022-10-20T06:41:21;3.80;99.90
40808;DHT22;26523;52.504;13.498;2022-10-20T06:43:47;3.80;99.90
40808;DHT22;26523;52.504;13.498;2022-10-20T06:46:15;3.90;99.90
40808;DHT22;26523;52.504;13.498;2022-10-20T06:48:41;3.90;99.90
40808;DHT22;26523;52.504;13.498;2022-10-20T06:51:14;3.90;99.90
40808;DHT22;26523;52.504;13.498;2022-10-20T06:53:42;4.00;99.90
40808;DHT22;26523;52.504;13.498;2022-10-20T06:56:11;4.10;99.90
40808;DHT22;26523;52.504;13.498;2022-10-20T06:58:37;4.20;99.90
40808;DHT22;26523;52.504;13.498;2022-10-20T07:01:05;4.30;99.90
40808;DHT22;26523;52.504;13.498;2022-10-20T07:03:32;4.40;99.90
40808;DHT22;26523;52.504;13.498;2022-10-20T07:05:59;4.40;99.90
40808;DHT22;26523;52.504;13.498;2022-10-20T07:08:27;4.60;99.90
40808;DHT22;26523;52.504;13.498;2022-10-20T07:11:07;4.70;99.90
40808;DHT22;26523;52.504;13.498;2022-10-20T07:13:34;4.80;99.90
40808;DHT22;26523;52.504;13.498;2022-10-20T07:16:01;4.80;99.90
40808;DHT22;26523;52.504;13.498;2022-10-20T07:18:27;4.90;99.90
40808;DHT22;26523;52.504;13.498;2022-10-20T07:20:58;5.10;99.90
40808;DHT22;26523;52.504;13.498;2022-10-20T07:23:27;5.10;99.90
40808;DHT22;26523;52.504;13.498;2022-10-20T07:26:01;5.20;99.90
40808;DHT22;26523;52.504;13.498;2022-10-20T07:28:27;5.40;99.90
40808;DHT22;26523;52.504;13.498;2022-10-20T07:30:53;5.50;99.90
40808;DHT22;26523;52.504;13.498;2022-10-20T07:33:19;5.70;99.90
40808;DHT22;26523;52.504;13.498;2022-10-20T07:35:44;5.80;99.90
40808;DHT22;26523;52.504;13.498;2022-10-20T07:38:10;5.90;99.90
40808;DHT22;26523;52.504;13.498;2022-10-20T07:40:35;5.90;99.90
40808;DHT22;26523;52.504;13.498;2022-10-20T07:43:01;6.00;99.90
40808;DHT22;26523;52.504;13.498;2022-10-20T07:45:26;6.00;99.90
40808;DHT22;26523;52.504;13.498;2022-10-20T07:47:52;6.20;99.90
40808;DHT22;26523;52.504;13.498;2022-10-20T07:50:17;6.20;99.90
40808;DHT22;26523;52.504;13.498;2022-10-20T07:52:43;6.30;99.90
40808;DHT22;26523;52.504;13.498;2022-10-20T07:55:09;6.30;99.90
40808;DHT22;26523;52.504;13.498;2022-10-20T07:57:35;6.40;99.90
40808;DHT22;26523;52.504;13.498;2022-10-20T08:00:01;6.50;99.90
40808;DHT22;26523;52.504;13.498;2022-10-20T08:02:26;6.70;99.90
40808;DHT22;26523;52.504;13.498;2022-10-20T08:04:52;6.80;99.90
40808;DHT22;26523;52.504;13.498;2022-10-20T08:07:17;6.90;99.90
40808;DHT22;26523;52.504;13.498;2022-10-20T08:09:43;7.10;99.90
40808;DHT22;26523;52.504;13.498;2022-10-20T08:12:10;7.20;99.90
40808;DHT22;26523;52.504;13.498;2022-10-20T08:14:35;7.40;99.90
40808;DHT22;26523;52.504;13.498;2022-10-20T08:17:02;7.40;99.90
40808;DHT22;26523;52.504;13.498;2022-10-20T08:19:28;7.60;99.90
40808;DHT22;26523;52.504;13.498;2022-10-20T08:21:53;7.70;99.90
40808;DHT22;26523;52.504;13.498;2022-10-20T08:24:19;7.80;99.90
40808;DHT22;26523;52.504;13.498;2022-10-20T08:26:45;7.90;99.90
40808;DHT22;26523;52.504;13.498;2022-10-20T08:29:10;8.00;99.90
40808;DHT22;26523;52.504;13.498;2022-10-20T08:31:37;8.30;99.90
40808;DHT22;26523;52.504;13.498;2022-10-20T08:34:03;8.30;99.90
40808;DHT22;26523;52.504;13.498;2022-10-20T08:36:28;8.40;99.90
40808;DHT22;26523;52.504;13.498;2022-10-20T08:38:54;8.60;99.90
40808;DHT22;26523;52.504;13.498;2022-10-20T08:41:30;9.00;99.90
40808;DHT22;26523;52.504;13.498;2022-10-20T08:43:58;10.90;99.90
40808;DHT22;26523;52.504;13.498;2022-10-20T08:46:39;12.60;99.90
40808;DHT22;26523;52.504;13.498;2022-10-20T08:49:10;13.50;99.90
40808;DHT22;26523;52.504;13.498;2022-10-20T08:51:37;13.70;99.90
40808;DHT22;26523;52.504;13.498;2022-10-20T08:54:05;13.00;99.90
40808;DHT22;26523;52.504;13.498;2022-10-20T08:56:35;12.30;99.90
40808;DHT22;26523;52.504;13.498;2022-10-20T08:59:02;11.70;99.90
40808;DHT22;26523;52.504;13.498;2022-10-20T09:01:33;11.10;99.90
40808;DHT22;26523;52.504;13.498;2022-10-20T09:04:23;10.80;99.90
40808;DHT22;26523;52.504;13.498;2022-10-20T09:06:54;10.50;99.90
40808;DHT22;26523;52.504;13.498;2022-10-20T09:09:22;10.40;99.90
40808;DHT22;26523;52.504;13.498;2022-10-20T09:11:48;10.30;99.90
40808;DHT22;26523;52.504;13.498;2022-10-20T09:14:14;10.20;99.90
40808;DHT22;26523;52.504;13.498;2022-10-20T09:16:42;10.10;99.90
40808;DHT22;26523;52.504;13.498;2022-10-20T09:19:20;10.10;99.90
40808;DHT22;26523;52.504;13.498;2022-10-20T09:21:50;10.10;99.90
40808;DHT22;26523;52.504;13.498;2022-10-20T09:24:19;10.10;99.90
40808;DHT22;26523;52.504;13.498;2022-10-20T09:26:47;10.10;99.90
40808;DHT22;26523;52.504;13.498;2022-10-20T09:29:19;10.10;99.90
40808;DHT22;26523;52.504;13.498;2022-10-20T09:31:50;10.20;99.90
40808;DHT22;26523;52.504;13.498;2022-10-20T09:34:28;10.20;99.90
40808;DHT22;26523;52.504;13.498;2022-10-20T09:42:13;10.40;99.90
40808;DHT22;26523;52.504;13.498;2022-10-20T09:45:11;10.40;99.90
40808;DHT22;26523;52.504;13.498;2022-10-20T09:47:45;10.40;99.90
40808;DHT22;26523;52.504;13.498;2022-10-20T09:50:24;10.40;99.90
40808;DHT22;26523;52.504;13.498;2022-10-20T09:52:51;10.40;99.90
40808;DHT22;26523;52.504;13.498;2022-10-20T09:55:26;10.30;99.90
40808;DHT22;26523;52.504;13.498;2022-10-20T09:57:53;10.50;99.90
40808;DHT22;26523;52.504;13.498;2022-10-20T10:00:45;10.50;99.90
40808;DHT22;26523;52.504;13.498;2022-10-20T10:03:21;10.50;99.90
40808;DHT22;26523;52.504;13.498;2022-10-20T10:05:55;10.60;99.90
40808;DHT22;26523;52.504;13.498;2022-10-20T10:08:22;10.60;99.90
40808;DHT22;26523;52.504;13.498;2022-10-20T10:11:02;10.70;99.90
40808;DHT22;26523;52.504;13.498;2022-10-20T10:13:31;10.70;99.90
40808;DHT22;26523;52.504;13.498;2022-10-20T10:16:04;10.70;99.90
40808;DHT22;26523;52.504;13.498;2022-10-20T10:18:30;10.70;99.90
40808;DHT22;26523;52.504;13.498;2022-10-20T10:21:03;10.80;99.90
40808;DHT22;26523;52.504;13.498;2022-10-20T10:23:32;10.90;99.90
40808;DHT22;26523;52.504;13.498;2022-10-20T10:26:01;11.00;99.90
40808;DHT22;26523;52.504;13.498;2022-10-20T10:28:31;11.10;99.90
40808;DHT22;26523;52.504;13.498;2022-10-20T10:31:17;11.20;99.90
40808;DHT22;26523;52.504;13.498;2022-10-20T10:33:44;11.40;99.90
40808;DHT22;26523;52.504;13.498;2022-10-20T10:36:34;11.50;99.90
40808;DHT22;26523;52.504;13.498;2022-10-20T10:39:02;11.60;99.90
40808;DHT22;26523;52.504;13.498;2022-10-20T10:45:19;11.80;99.90
40808;DHT22;26523;52.504;13.498;2022-10-20T10:50:25;12.00;99.90
40808;DHT22;26523;52.504;13.498;2022-10-20T10:55:30;12.00;99.90
40808;DHT22;26523;52.504;13.498;2022-10-20T11:06:30;12.10;99.90
40808;DHT22;26523;52.504;13.498;2022-10-20T11:09:08;12.10;99.90
40808;DHT22;26523;52.504;13.498;2022-10-20T11:17:19;12.30;99.90
40808;DHT22;26523;52.504;13.498;2022-10-20T11:23:08;12.20;99.90
40808;DHT22;26523;52.504;13.498;2022-10-20T11:26:31;12.30;99.90
40808;DHT22;26523;52.504;13.498;2022-10-20T11:28:44;12.30;99.90
40808;DHT22;26523;52.504;13.498;2022-10-20T11:34:22;12.40;99.90
40808;DHT22;26523;52.504;13.498;2022-10-20T11:37:06;12.40;99.90
40808;DHT22;26523;52.504;13.498;2022-10-20T11:39:47;12.50;99.90
40808;DHT22;26523;52.504;13.498;2022-10-20T11:42:24;12.50;99.90
40808;DHT22;26523;52.504;13.498;2022-10-20T11:44:54;12.50;99.90
40808;DHT22;26523;52.504;13.498;2022-10-20T11:47:38;12.50;99.90
40808;DHT22;26523;52.504;13.498;2022-10-20T11:50:08;12.60;99.90
40808;DHT22;26523;52.504;13.498;2022-10-20T11:59:23;12.80;99.90
40808;DHT22;26523;52.504;13.498;2022-10-20T12:01:31;12.80;99.90
40808;DHT22;26523;52.504;13.498;2022-10-20T12:06:56;12.80;99.90
40808;DHT22;26523;52.504;13.498;2022-10-20T12:14:41;12.90;99.90
40808;DHT22;26523;52.504;13.498;2022-10-20T12:19:36;12.80;99.90
40808;DHT22;26523;52.504;13.498;2022-10-20T12:29:48;12.90;99.90
40808;DHT22;26523;52.504;13.498;2022-10-20T12:34:59;12.90;99.90
40808;DHT22;26523;52.504;13.498;2022-10-20T12:37:33;12.90;99.90
40808;DHT22;26523;52.504;13.498;2022-10-20T12:42:38;13.00;99.90
40808;DHT22;26523;52.504;13.498;2022-10-20T12:45:35;12.90;99.90
40808;DHT22;26523;52.504;13.498;2022-10-20T12:48:02;12.90;99.90
40808;DHT22;26523;52.504;13.498;2022-10-20T12:50:42;13.00;99.90
40808;DHT22;26523;52.504;13.498;2022-10-20T12:53:23;13.10;99.90
40808;DHT22;26523;52.504;13.498;2022-10-20T12:55:58;13.20;99.90
40808;DHT22;26523;52.504;13.498;2022-10-20T12:58:26;13.20;99.90
40808;DHT22;26523;52.504;13.498;2022-10-20T13:03:40;13.30;99.90
40808;DHT22;26523;52.504;13.498;2022-10-20T13:09:16;13.40;99.90
40808;DHT22;26523;52.504;13.498;2022-10-20T13:11:53;13.40;99.90
40808;DHT22;26523;52.504;13.498;2022-10-20T13:19:56;13.30;99.90
40808;DHT22;26523;52.504;13.498;2022-10-20T13:22:35;13.40;99.90
40808;DHT22;26523;52.504;13.498;2022-10-20T13:25:04;13.30;99.90
40808;DHT22;26523;52.504;13.498;2022-10-20T13:27:31;13.20;99.90
40808;DHT22;26523;52.504;13.498;2022-10-20T13:29:57;13.30;99.90
40808;DHT22;26523;52.504;13.498;2022-10-20T13:35:41;13.20;99.90
40808;DHT22;26523;52.504;13.498;2022-10-20T13:38:19;13.30;99.90
40808;DHT22;26523;52.504;13.498;2022-10-20T13:41:09;13.20;99.90
40808;DHT22;26523;52.504;13.498;2022-10-20T13:46:23;13.30;99.90
40808;DHT22;26523;52.504;13.498;2022-10-20T13:49:04;13.30;99.90
40808;DHT22;26523;52.504;13.498;2022-10-20T13:51:41;13.10;99.90
40808;DHT22;26523;52.504;13.498;2022-10-20T13:54:46;13.10;99.90
40808;DHT22;26523;52.504;13.498;2022-10-20T13:57:32;13.20;99.90
40808;DHT22;26523;52.504;13.498;2022-10-20T14:00:03;13.20;99.90
40808;DHT22;26523;52.504;13.498;2022-10-20T14:02:33;13.20;99.90
40808;DHT22;26523;52.504;13.498;2022-10-20T14:05:12;13.10;99.90
40808;DHT22;26523;52.504;13.498;2022-10-20T14:07:41;13.00;99.90
40808;DHT22;26523;52.504;13.498;2022-10-20T14:12:45;13.00;99.90
40808;DHT22;26523;52.504;13.498;2022-10-20T14:15:15;12.90;99.90
40808;DHT22;26523;52.504;13.498;2022-10-20T14:17:54;12.80;99.90
40808;DHT22;26523;52.504;13.498;2022-10-20T14:20:21;12.80;99.90
40808;DHT22;26523;52.504;13.498;2022-10-20T14:22:47;12.80;99.90
40808;DHT22;26523;52.504;13.498;2022-10-20T14:25:13;12.80;99.90
40808;DHT22;26523;52.504;13.498;2022-10-20T14:27:39;12.80;99.90
40808;DHT22;26523;52.504;13.498;2022-10-20T14:30:05;12.80;99.90
40808;DHT22;26523;52.504;13.498;2022-10-20T14:32:37;12.80;99.90
40808;DHT22;26523;52.504;13.498;2022-10-20T14:35:18;12.80;99.90
40808;DHT22;26523;52.504;13.498;2022-10-20T14:38:01;12.80;99.90
40808;DHT22;26523;52.504;13.498;2022-10-20T14:40:32;12.70;99.90
40808;DHT22;26523;52.504;13.498;2022-10-20T14:43:20;12.70;99.90
40808;DHT22;26523;52.504;13.498;2022-10-20T14:45:58;12.70;99.90
40808;DHT22;26523;52.504;13.498;2022-10-20T14:48:32;12.70;99.90
40808;DHT22;26523;52.504;13.498;2022-10-20T14:50:59;12.70;99.90
40808;DHT22;26523;52.504;13.498;2022-10-20T14:53:31;12.70;99.90
40808;DHT22;26523;52.504;13.498;2022-10-20T14:55:59;12.70;99.90
40808;DHT22;26523;52.504;13.498;2022-10-20T14:58:59;12.70;99.90
40808;DHT22;26523;52.504;13.498;2022-10-20T15:01:27;12.60;99.90
40808;DHT22;26523;52.504;13.498;2022-10-20T15:04:23;12.50;99.90
40808;DHT22;26523;52.504;13.498;2022-10-20T15:06:49;12.50;99.90
40808;DHT22;26523;52.504;13.498;2022-10-20T15:09:31;12.40;99.90
40808;DHT22;26523;52.504;13.498;2022-10-20T15:11:57;12.40;99.90
40808;DHT22;26523;52.504;13.498;2022-10-20T15:14:23;12.40;99.90
40808;DHT22;26523;52.504;13.498;2022-10-20T15:16:49;12.20;99.90
40808;DHT22;26523;52.504;13.498;2022-10-20T15:19:28;12.20;99.90
40808;DHT22;26523;52.504;13.498;2022-10-20T15:22:19;12.20;99.90
40808;DHT22;26523;52.504;13.498;2022-10-20T15:24:45;12.20;99.90
40808;DHT22;26523;52.504;13.498;2022-10-20T15:27:15;12.00;99.90
40808;DHT22;26523;52.504;13.498;2022-10-20T15:29:49;11.90;99.90
40808;DHT22;26523;52.504;13.498;2022-10-20T15:32:16;11.80;99.90
40808;DHT22;26523;52.504;13.498;2022-10-20T15:34:42;11.70;99.90
40808;DHT22;26523;52.504;13.498;2022-10-20T15:37:08;11.60;99.90
40808;DHT22;26523;52.504;13.498;2022-10-20T15:39:33;11.50;99.90
40808;DHT22;26523;52.504;13.498;2022-10-20T15:42:00;11.40;99.90
40808;DHT22;26523;52.504;13.498;2022-10-20T15:44:26;11.30;99.90
40808;DHT22;26523;52.504;13.498;2022-10-20T15:46:52;11.30;99.90
40808;DHT22;26523;52.504;13.498;2022-10-20T15:49:21;11.30;99.90
40808;DHT22;26523;52.504;13.498;2022-10-20T15:51:47;11.20;99.90
40808;DHT22;26523;52.504;13.498;2022-10-20T15:54:20;11.20;99.90
40808;DHT22;26523;52.504;13.498;2022-10-20T15:56:47;11.10;99.90
40808;DHT22;26523;52.504;13.498;2022-10-20T15:59:12;11.00;99.90
40808;DHT22;26523;52.504;13.498;2022-10-20T16:01:38;11.00;99.90
40808;DHT22;26523;52.504;13.498;2022-10-20T16:04:18;10.90;99.90
40808;DHT22;26523;52.504;13.498;2022-10-20T16:06:48;10.90;99.90
40808;DHT22;26523;52.504;13.498;2022-10-20T16:09:16;10.70;99.90
40808;DHT22;26523;52.504;13.498;2022-10-20T16:11:42;10.70;99.90
40808;DHT22;26523;52.504;13.498;2022-10-20T16:14:07;10.70;99.90
40808;DHT22;26523;52.504;13.498;2022-10-20T16:16:33;10.60;99.90
40808;DHT22;26523;52.504;13.498;2022-10-20T16:18:59;10.50;99.90
40808;DHT22;26523;52.504;13.498;2022-10-20T16:21:25;10.50;99.90
40808;DHT22;26523;52.504;13.498;2022-10-20T16:23:50;10.40;99.90
40808;DHT22;26523;52.504;13.498;2022-10-20T16:26:16;10.40;99.90
40808;DHT22;26523;52.504;13.498;2022-10-20T16:28:42;10.40;99.90
40808;DHT22;26523;52.504;13.498;2022-10-20T16:31:09;10.40;99.90
40808;DHT22;26523;52.504;13.498;2022-10-20T16:33:36;10.20;99.90
40808;DHT22;26523;52.504;13.498;2022-10-20T16:36:04;10.30;99.90
40808;DHT22;26523;52.504;13.498;2022-10-20T16:38:30;10.20;99.90
40808;DHT22;26523;52.504;13.498;2022-10-20T16:41:02;10.10;99.90
40808;DHT22;26523;52.504;13.498;2022-10-20T16:43:28;10.00;99.90
40808;DHT22;26523;52.504;13.498;2022-10-20T16:45:54;9.90;99.90
40808;DHT22;26523;52.504;13.498;2022-10-20T16:48:20;9.90;99.90
40808;DHT22;26523;52.504;13.498;2022-10-20T16:50:46;9.90;99.90
40808;DHT22;26523;52.504;13.498;2022-10-20T16:53:12;9.90;99.90
40808;DHT22;26523;52.504;13.498;2022-10-20T16:55:38;9.90;99.90
40808;DHT22;26523;52.504;13.498;2022-10-20T16:58:04;9.80;99.90
40808;DHT22;26523;52.504;13.498;2022-10-20T17:00:29;9.80;99.90
40808;DHT22;26523;52.504;13.498;2022-10-20T17:02:55;9.80;99.90
40808;DHT22;26523;52.504;13.498;2022-10-20T17:05:22;9.80;99.90
40808;DHT22;26523;52.504;13.498;2022-10-20T17:07:48;9.80;99.90
40808;DHT22;26523;52.504;13.498;2022-10-20T17:10:15;9.70;99.90
40808;DHT22;26523;52.504;13.498;2022-10-20T17:12:41;9.60;99.90
40808;DHT22;26523;52.504;13.498;2022-10-20T17:15:07;9.60;99.90
40808;DHT22;26523;52.504;13.498;2022-10-20T17:17:33;9.50;99.90
40808;DHT22;26523;52.504;13.498;2022-10-20T17:19:59;9.50;99.90
40808;DHT22;26523;52.504;13.498;2022-10-20T17:22:24;9.50;99.90
40808;DHT22;26523;52.504;13.498;2022-10-20T17:24:50;9.50;99.90
40808;DHT22;26523;52.504;13.498;2022-10-20T17:27:15;9.50;99.90